Terminal Aerodrome Forecast
Issued by NWS

Home | Current Version | Previous Version | Graphics & Text | Print | Product List | Glossary On
Versions: 1 2 3 4 5 6 7 8 9 10 11 12 13 14 15 16 17 18
000
FTUS43 KBIS 280319 AAA
TAFMOT
TAF AMD
KMOT 280319Z 2803/2824 01007KT P6SM BKN015
     FM280800 02005KT P6SM OVC008
     FM281600 03005KT P6SM BKN010
     FM281900 04005KT P6SM BKN040=

USA.gov is the U.S. government's official web portal to all federal, state and local government web resources and services.